createdAt,value
2023-05-21T00:00:25.584Z,12.15
2023-05-21T00:01:28.759Z,10.90
2023-05-21T00:02:31.775Z,6.18
2023-05-21T00:03:36.626Z,5.55
2023-05-21T00:04:41.223Z,8.73
2023-05-21T00:05:45.547Z,8.80
2023-05-21T00:06:49.103Z,9.07
2023-05-21T00:07:54.324Z,9.23
2023-05-21T00:08:57.628Z,6.80
2023-05-21T00:10:01.667Z,7.38
2023-05-21T00:11:07.152Z,5.75
2023-05-21T00:12:10.707Z,10.68
2023-05-21T00:13:14.139Z,14.02
2023-05-21T00:14:17.850Z,8.50
2023-05-21T00:15:20.976Z,13.85
2023-05-21T00:16:24.459Z,7.78
2023-05-21T00:17:28.641Z,10.00
2023-05-21T00:18:33.247Z,24.92
2023-05-21T00:19:36.797Z,10.13
2023-05-21T00:20:42.676Z,10.23
2023-05-21T00:21:46.568Z,8.88
2023-05-21T00:22:49.781Z,6.57
2023-05-21T00:23:57.183Z,7.78
2023-05-21T00:25:00.786Z,6.25
2023-05-21T00:26:04.558Z,5.72
2023-05-21T00:27:07.850Z,5.95
2023-05-21T00:28:11.802Z,10.82
2023-05-21T00:29:15.579Z,7.85
2023-05-21T00:30:19.268Z,7.57
2023-05-21T00:31:22.491Z,5.93
2023-05-21T00:32:26.215Z,9.73
2023-05-21T00:33:29.913Z,10.88
2023-05-21T00:34:33.295Z,9.63
2023-05-21T00:35:37.103Z,8.95
2023-05-21T00:36:41.170Z,8.57
2023-05-21T00:37:44.851Z,5.90
2023-05-21T00:38:48.025Z,9.02
2023-05-21T00:39:51.777Z,7.38
2023-05-21T00:40:55.380Z,5.00
2023-05-21T00:41:58.625Z,6.50
2023-05-21T00:43:03.010Z,11.95
2023-05-21T00:44:07.331Z,7.05
2023-05-21T00:45:11.418Z,9.40
2023-05-21T00:46:16.998Z,9.70
2023-05-21T00:47:22.104Z,7.00
2023-05-21T00:48:25.334Z,10.05
2023-05-21T00:49:28.756Z,5.72
2023-05-21T00:50:32.934Z,8.85
2023-05-21T00:51:36.530Z,8.75
2023-05-21T00:52:42.851Z,4.63
2023-05-21T00:53:47.155Z,7.13
2023-05-21T00:54:50.933Z,9.23
2023-05-21T00:55:54.129Z,10.55
2023-05-21T00:56:57.459Z,10.57
2023-05-21T00:58:00.799Z,12.35
2023-05-21T00:59:06.469Z,6.75
2023-05-21T01:00:13.081Z,7.00
2023-05-21T01:01:17.075Z,6.28
2023-05-21T01:02:21.098Z,10.98
2023-05-21T01:03:25.229Z,9.68
2023-05-21T01:04:28.851Z,8.52
2023-05-21T01:05:33.117Z,6.60
2023-05-21T01:06:36.454Z,7.13
2023-05-21T01:07:40.312Z,10.07
2023-05-21T01:08:43.757Z,7.35
2023-05-21T01:09:47.349Z,9.57
2023-05-21T01:10:50.981Z,6.40
2023-05-21T01:11:54.153Z,8.00
2023-05-21T01:12:58.983Z,11.45
2023-05-21T01:14:02.318Z,7.35
2023-05-21T01:15:06.109Z,9.27
2023-05-21T01:16:10.207Z,7.05
2023-05-21T01:17:13.726Z,8.52
2023-05-21T01:18:16.948Z,10.15
2023-05-21T01:19:21.724Z,6.75
2023-05-21T01:20:25.523Z,11.82
2023-05-21T01:21:29.357Z,8.45
2023-05-21T01:22:33.354Z,8.07
2023-05-21T01:23:36.770Z,11.50
2023-05-21T01:24:40.035Z,8.50
2023-05-21T01:25:43.209Z,6.35
2023-05-21T01:26:50.526Z,11.23
2023-05-21T01:27:53.934Z,6.85
2023-05-21T01:28:57.108Z,13.75
2023-05-21T01:30:01.007Z,7.45
2023-05-21T01:31:13.278Z,6.22
2023-05-21T01:32:22.049Z,9.43
2023-05-21T01:33:31.092Z,9.75
2023-05-21T01:35:06.179Z,7.15
2023-05-21T01:36:25.107Z,5.25
2023-05-21T01:37:37.962Z,7.15
2023-05-21T01:38:53.431Z,8.88
2023-05-21T01:39:57.857Z,8.38
2023-05-21T01:41:05.020Z,7.22
2023-05-21T01:42:11.357Z,9.90
2023-05-21T01:43:14.982Z,8.27
2023-05-21T01:44:19.095Z,9.25
2023-05-21T01:45:23.750Z,5.97
2023-05-21T01:46:28.696Z,8.77
2023-05-21T01:47:32.108Z,9.85
2023-05-21T01:48:35.167Z,7.55
2023-05-21T01:49:38.285Z,12.93
2023-05-21T01:50:42.266Z,8.02
2023-05-21T01:51:45.972Z,8.98
2023-05-21T01:52:51.577Z,13.27
2023-05-21T01:53:55.409Z,10.45
2023-05-21T01:54:58.638Z,9.57
2023-05-21T01:56:03.705Z,6.93
2023-05-21T01:57:07.807Z,11.25
2023-05-21T01:58:11.543Z,11.52
2023-05-21T01:59:15.037Z,7.80
2023-05-21T02:00:19.312Z,9.52
2023-05-21T02:01:22.894Z,7.63
2023-05-21T02:02:26.881Z,9.40
2023-05-21T02:03:31.683Z,8.13
2023-05-21T02:04:35.386Z,13.18
2023-05-21T02:05:39.103Z,9.57
2023-05-21T02:06:42.937Z,9.77
2023-05-21T02:07:47.037Z,11.30
2023-05-21T02:08:51.202Z,9.75
2023-05-21T02:09:54.637Z,8.98
2023-05-21T02:10:57.797Z,11.43
2023-05-21T02:12:02.271Z,10.02
2023-05-21T02:13:05.312Z,8.70
2023-05-21T02:14:11.417Z,10.13
2023-05-21T02:15:14.861Z,8.05
2023-05-21T02:16:18.303Z,5.85
2023-05-21T02:17:22.426Z,8.18
2023-05-21T02:18:27.292Z,7.53
2023-05-21T02:19:30.701Z,6.15
2023-05-21T02:20:34.229Z,9.43
2023-05-21T02:21:37.533Z,9.45
2023-05-21T02:22:41.881Z,7.15
2023-05-21T02:23:45.453Z,14.60
2023-05-21T02:24:49.075Z,13.07
2023-05-21T02:25:52.497Z,10.32
2023-05-21T02:26:55.574Z,7.32
2023-05-21T02:27:58.901Z,9.77
2023-05-21T02:29:02.155Z,7.63
2023-05-21T02:30:06.389Z,7.88
2023-05-21T02:31:09.900Z,6.88
2023-05-21T02:32:14.482Z,6.15
2023-05-21T02:33:18.180Z,6.47
2023-05-21T02:34:22.984Z,5.07
2023-05-21T02:35:26.965Z,6.32
2023-05-21T02:36:34.288Z,9.43
2023-05-21T02:37:38.603Z,4.93
2023-05-21T02:38:44.488Z,7.68
2023-05-21T02:39:48.043Z,7.10
2023-05-21T02:40:52.624Z,10.07
2023-05-21T02:41:56.125Z,8.10
2023-05-21T02:42:59.546Z,8.05
2023-05-21T02:44:03.059Z,6.68
2023-05-21T02:45:08.883Z,5.03
2023-05-21T02:46:13.222Z,10.30
2023-05-21T02:47:16.313Z,5.65
2023-05-21T02:48:20.062Z,9.00
2023-05-21T02:49:23.393Z,7.63
2023-05-21T02:50:26.982Z,15.35
2023-05-21T02:51:33.999Z,9.75
2023-05-21T02:52:37.730Z,10.23
2023-05-21T02:53:41.181Z,11.73
2023-05-21T02:54:45.142Z,12.55
2023-05-21T02:55:48.962Z,12.10
2023-05-21T02:56:52.092Z,8.50
2023-05-21T02:57:55.710Z,11.02
2023-05-21T02:58:59.107Z,9.18
2023-05-21T03:00:02.564Z,10.40
2023-05-21T03:01:07.792Z,12.02
2023-05-21T03:02:11.290Z,6.20
2023-05-21T03:03:14.952Z,8.27
2023-05-21T03:04:18.978Z,8.82
2023-05-21T03:05:22.493Z,8.63
2023-05-21T03:06:27.054Z,8.02
2023-05-21T03:07:30.746Z,6.20
2023-05-21T03:08:34.530Z,6.72
2023-05-21T03:09:38.296Z,5.00
2023-05-21T03:10:41.402Z,4.00
2023-05-21T03:11:45.129Z,12.75
2023-05-21T03:12:48.721Z,7.75
2023-05-21T03:13:52.170Z,9.13
2023-05-21T03:14:57.304Z,9.98
2023-05-21T03:16:00.842Z,9.70
2023-05-21T03:17:06.874Z,9.35
2023-05-21T03:18:12.439Z,19.23
2023-05-21T03:19:16.466Z,23.40
2023-05-21T03:20:20.925Z,18.70
2023-05-21T03:21:24.491Z,21.50
2023-05-21T03:22:27.480Z,16.02
2023-05-21T03:23:30.784Z,21.45
2023-05-21T03:24:34.603Z,18.38
2023-05-21T03:25:38.788Z,14.18
2023-05-21T03:26:42.111Z,17.17
2023-05-21T03:27:45.152Z,16.25
2023-05-21T03:29:06.872Z,14.57
2023-05-21T03:30:12.783Z,16.30
2023-05-21T03:31:33.035Z,11.77
2023-05-21T03:32:48.340Z,12.00
2023-05-21T03:33:51.799Z,12.63
2023-05-21T03:35:00.267Z,12.65
2023-05-21T03:36:03.926Z,11.70
2023-05-21T03:37:11.631Z,12.48
2023-05-21T03:38:15.038Z,9.32
2023-05-21T03:39:18.967Z,8.68
2023-05-21T03:40:22.564Z,8.77
2023-05-21T03:41:26.738Z,9.52
2023-05-21T03:43:38.923Z,12.75
2023-05-21T03:44:42.296Z,9.30
2023-05-21T03:46:08.941Z,9.88
2023-05-21T03:47:39.927Z,9.75
2023-05-21T03:48:44.493Z,8.25
2023-05-21T03:49:51.037Z,8.30
2023-05-21T03:50:54.765Z,7.90
2023-05-21T03:51:58.013Z,10.93
2023-05-21T03:53:03.014Z,8.77
2023-05-21T03:54:07.248Z,13.70
2023-05-21T03:55:14.501Z,10.38
2023-05-21T03:56:18.098Z,10.15
2023-05-21T03:57:22.022Z,10.93
2023-05-21T03:58:25.700Z,9.32
2023-05-21T03:59:30.337Z,15.00
2023-05-21T04:00:35.494Z,10.35
2023-05-21T04:01:39.586Z,7.72
2023-05-21T04:02:46.638Z,7.10
2023-05-21T04:03:52.983Z,10.75
2023-05-21T04:04:59.964Z,10.20
2023-05-21T04:06:04.557Z,7.63
2023-05-21T04:07:14.958Z,13.63
2023-05-21T04:08:18.393Z,11.02
2023-05-21T04:09:22.484Z,8.27
2023-05-21T04:10:26.350Z,5.93
2023-05-21T04:11:30.946Z,10.45
2023-05-21T04:12:34.166Z,10.50
2023-05-21T04:13:37.541Z,8.93
2023-05-21T04:14:41.252Z,9.05
2023-05-21T04:15:45.314Z,8.88
2023-05-21T04:16:50.087Z,9.15
2023-05-21T04:17:53.509Z,9.75
2023-05-21T04:18:57.710Z,8.82
2023-05-21T04:20:03.263Z,7.20
2023-05-21T04:21:07.701Z,6.97
2023-05-21T04:22:12.899Z,9.27
2023-05-21T04:23:16.629Z,7.38
2023-05-21T04:24:20.956Z,8.60
2023-05-21T04:25:35.285Z,10.57
2023-05-21T04:26:38.787Z,12.88
2023-05-21T04:27:43.612Z,7.05
2023-05-21T04:28:47.219Z,8.73
2023-05-21T04:29:51.737Z,6.95
2023-05-21T04:30:57.054Z,7.43
2023-05-21T04:32:01.192Z,9.65
2023-05-21T04:33:05.038Z,7.55
2023-05-21T04:34:10.808Z,11.13
2023-05-21T04:35:15.762Z,7.72
2023-05-21T04:36:19.155Z,10.50
2023-05-21T04:37:25.434Z,8.88
2023-05-21T04:38:28.960Z,10.57
2023-05-21T04:39:32.166Z,9.70
2023-05-21T04:40:36.645Z,8.18
2023-05-21T04:41:40.765Z,11.18
2023-05-21T04:42:44.838Z,10.05
2023-05-21T04:43:48.177Z,7.90
2023-05-21T04:44:52.890Z,7.47
2023-05-21T04:45:56.501Z,7.97
2023-05-21T04:47:01.152Z,6.65
2023-05-21T04:48:04.760Z,6.22
2023-05-21T04:49:08.395Z,8.90
2023-05-21T04:50:11.716Z,7.80
2023-05-21T04:51:15.599Z,9.73
2023-05-21T04:52:19.374Z,6.72
2023-05-21T04:53:23.924Z,8.30
2023-05-21T04:54:27.094Z,8.82
2023-05-21T04:55:30.410Z,7.45
2023-05-21T04:56:33.936Z,10.40
2023-05-21T04:57:38.460Z,7.10
2023-05-21T04:58:41.395Z,5.45
2023-05-21T04:59:45.174Z,10.75
2023-05-21T05:00:52.272Z,8.70
2023-05-21T05:01:56.739Z,6.50
2023-05-21T05:03:00.095Z,5.40
2023-05-21T05:04:04.227Z,5.03
2023-05-21T05:05:08.051Z,8.05
2023-05-21T05:06:11.730Z,6.68
2023-05-21T05:07:16.158Z,6.53
2023-05-21T05:08:19.227Z,6.05
2023-05-21T05:09:26.354Z,8.23
2023-05-21T05:10:30.107Z,5.18
2023-05-21T05:11:33.690Z,5.45
2023-05-21T05:12:37.283Z,4.95
2023-05-21T05:13:45.096Z,4.45
2023-05-21T05:14:48.955Z,9.13
2023-05-21T05:15:54.536Z,8.75
2023-05-21T05:17:01.939Z,7.03
2023-05-21T05:18:05.560Z,5.88
2023-05-21T05:19:08.952Z,11.55
2023-05-21T05:20:13.129Z,9.95
2023-05-21T05:21:16.721Z,10.25
2023-05-21T05:22:20.246Z,5.72
2023-05-21T05:23:24.476Z,7.38
2023-05-21T05:24:28.218Z,8.43
2023-05-21T05:25:31.809Z,7.38
2023-05-21T05:26:35.413Z,6.20
2023-05-21T05:27:38.909Z,10.35
2023-05-21T05:28:42.744Z,6.03
2023-05-21T05:29:46.573Z,5.75
2023-05-21T05:30:50.501Z,10.73
2023-05-21T05:32:01.837Z,5.40
2023-05-21T05:33:05.747Z,10.25
2023-05-21T05:34:09.262Z,5.97
2023-05-21T05:35:12.736Z,8.60
2023-05-21T05:36:16.682Z,11.00
2023-05-21T05:37:20.562Z,9.40
2023-05-21T05:38:24.001Z,10.13
2023-05-21T05:39:27.758Z,10.25
2023-05-21T05:40:31.244Z,6.40
2023-05-21T05:41:35.071Z,8.88
2023-05-21T05:42:38.741Z,6.75
2023-05-21T05:43:48.119Z,8.07
2023-05-21T05:44:52.322Z,7.25
2023-05-21T05:45:56.064Z,9.77
2023-05-21T05:47:00.673Z,7.93
2023-05-21T05:48:04.691Z,5.63
2023-05-21T05:49:07.707Z,6.85
2023-05-21T05:50:11.884Z,4.90
2023-05-21T05:51:18.082Z,7.70
2023-05-21T05:52:22.126Z,8.18
2023-05-21T05:53:25.960Z,8.10
2023-05-21T05:54:29.764Z,9.15
2023-05-21T05:55:33.322Z,5.70
2023-05-21T05:56:37.001Z,5.15
2023-05-21T05:57:42.631Z,6.60
2023-05-21T05:58:50.512Z,8.68
2023-05-21T05:59:54.157Z,6.03
2023-05-21T06:00:58.006Z,8.48
2023-05-21T06:02:03.353Z,7.10
2023-05-21T06:03:07.065Z,5.68
2023-05-21T06:04:10.777Z,5.72
2023-05-21T06:05:14.471Z,10.35
2023-05-21T06:06:17.826Z,5.13
2023-05-21T06:07:21.728Z,7.00
2023-05-21T06:08:25.586Z,5.97
2023-05-21T06:09:29.077Z,7.03
2023-05-21T06:10:32.868Z,6.60
2023-05-21T06:11:37.119Z,5.10
2023-05-21T06:12:40.564Z,5.00
2023-05-21T06:13:44.256Z,6.60
2023-05-21T06:14:49.505Z,8.13
2023-05-21T06:15:54.287Z,7.25
2023-05-21T06:16:57.936Z,7.30
2023-05-21T06:18:04.240Z,7.95
2023-05-21T06:19:07.807Z,7.18
2023-05-21T06:20:11.316Z,8.27
2023-05-21T06:21:15.034Z,9.25
2023-05-21T06:22:18.280Z,9.95
2023-05-21T06:23:21.772Z,9.25
2023-05-21T06:24:26.457Z,5.82
2023-05-21T06:25:29.797Z,7.57
2023-05-21T06:26:33.372Z,9.38
2023-05-21T06:27:37.757Z,6.63
2023-05-21T06:28:45.866Z,7.35
2023-05-21T06:29:49.704Z,7.35
2023-05-21T06:30:53.189Z,5.70
2023-05-21T06:31:56.535Z,5.07
2023-05-21T06:33:00.123Z,10.52
2023-05-21T06:34:04.606Z,7.50
2023-05-21T06:35:09.468Z,5.28
2023-05-21T06:36:13.419Z,5.82
2023-05-21T06:37:20.699Z,6.55
2023-05-21T06:38:24.127Z,6.03
2023-05-21T06:39:28.160Z,5.32
2023-05-21T06:40:31.825Z,8.43
2023-05-21T06:41:36.449Z,7.15
2023-05-21T06:43:00.802Z,6.93
2023-05-21T06:44:30.587Z,5.25
2023-05-21T06:45:51.582Z,6.15
2023-05-21T06:47:04.898Z,8.30
2023-05-21T06:48:08.736Z,4.82
2023-05-21T06:49:14.658Z,7.90
2023-05-21T06:50:19.789Z,6.05
2023-05-21T06:51:23.264Z,6.22
2023-05-21T06:52:29.476Z,7.65
2023-05-21T06:53:32.403Z,7.75
2023-05-21T06:54:36.075Z,6.75
2023-05-21T06:55:39.899Z,6.65
2023-05-21T06:56:52.854Z,6.13
2023-05-21T06:57:57.946Z,8.95
2023-05-21T06:59:00.969Z,5.80
2023-05-21T07:00:04.548Z,5.18
2023-05-21T07:01:09.622Z,6.32
2023-05-21T07:02:13.530Z,6.63
2023-05-21T07:03:17.814Z,5.43
2023-05-21T07:04:21.233Z,11.57
2023-05-21T07:05:24.335Z,4.25
2023-05-21T07:06:28.017Z,4.55
2023-05-21T07:07:32.153Z,9.55
2023-05-21T07:08:35.463Z,5.20
2023-05-21T07:09:39.624Z,5.72
2023-05-21T07:10:43.843Z,3.70
2023-05-21T07:11:48.079Z,7.82
2023-05-21T07:12:53.316Z,4.20
2023-05-21T07:14:02.909Z,3.15
2023-05-21T07:15:10.167Z,3.05
2023-05-21T07:16:13.852Z,5.88
2023-05-21T07:17:17.582Z,4.15
2023-05-21T07:18:21.385Z,9.23
2023-05-21T07:19:25.223Z,7.93
2023-05-21T07:20:30.043Z,7.53
2023-05-21T07:21:38.375Z,3.60
2023-05-21T07:22:44.949Z,7.20
2023-05-21T07:23:50.436Z,6.10
2023-05-21T07:24:54.705Z,5.63
2023-05-21T07:25:58.300Z,6.97
2023-05-21T07:27:04.619Z,8.63
2023-05-21T07:28:12.828Z,5.93
2023-05-21T07:29:16.058Z,4.45
2023-05-21T07:30:20.462Z,6.78
2023-05-21T07:31:24.043Z,6.07
2023-05-21T07:32:30.047Z,9.18
2023-05-21T07:33:34.383Z,3.70
2023-05-21T07:34:38.442Z,3.80
2023-05-21T07:35:42.161Z,7.95
2023-05-21T07:36:46.037Z,5.97
2023-05-21T07:37:49.363Z,6.55
2023-05-21T07:38:53.953Z,7.97
2023-05-21T07:39:58.684Z,11.93
2023-05-21T07:41:01.695Z,3.28
2023-05-21T07:42:05.596Z,5.32
2023-05-21T07:43:09.458Z,3.63
2023-05-21T07:44:15.251Z,4.53
2023-05-21T07:45:20.215Z,5.20
2023-05-21T07:46:23.958Z,2.72
2023-05-21T07:47:31.711Z,4.50
2023-05-21T07:48:36.502Z,5.13
2023-05-21T07:49:40.863Z,7.97
2023-05-21T07:50:44.257Z,5.18
2023-05-21T07:51:47.883Z,4.35
2023-05-21T07:52:52.446Z,6.55
2023-05-21T07:53:57.453Z,4.28
2023-05-21T07:55:09.451Z,3.47
2023-05-21T07:56:14.274Z,6.50
2023-05-21T07:57:18.784Z,4.63
2023-05-21T07:58:32.351Z,6.15
2023-05-21T07:59:35.524Z,10.30
2023-05-21T08:00:45.000Z,3.28
2023-05-21T08:01:48.713Z,3.63
2023-05-21T08:02:53.297Z,4.28
2023-05-21T08:03:57.372Z,5.53
2023-05-21T08:05:02.182Z,4.80
2023-05-21T08:06:05.503Z,5.65
2023-05-21T08:07:10.617Z,7.07
2023-05-21T08:08:14.144Z,7.30
2023-05-21T08:09:17.497Z,6.82
2023-05-21T08:10:20.780Z,3.35
2023-05-21T08:11:27.521Z,7.45
2023-05-21T08:12:31.374Z,2.80
2023-05-21T08:13:34.672Z,2.97
2023-05-21T08:14:39.411Z,2.60
2023-05-21T08:15:42.759Z,3.40
2023-05-21T08:16:47.626Z,3.80
2023-05-21T08:17:51.149Z,5.85
2023-05-21T08:18:54.788Z,3.25
2023-05-21T08:19:57.961Z,3.95
2023-05-21T08:21:01.164Z,4.93
2023-05-21T08:22:07.441Z,6.57
2023-05-21T08:23:13.273Z,4.78
2023-05-21T08:24:25.326Z,2.88
2023-05-21T08:25:29.186Z,2.90
2023-05-21T08:26:33.813Z,7.57
2023-05-21T08:27:39.059Z,3.95
2023-05-21T08:28:42.085Z,3.65
2023-05-21T08:29:45.804Z,3.55
2023-05-21T08:30:49.326Z,5.10
2023-05-21T08:31:53.221Z,5.95
2023-05-21T08:32:57.022Z,4.05
2023-05-21T08:34:02.013Z,3.65
2023-05-21T08:35:21.036Z,6.10
2023-05-21T08:36:50.577Z,3.33
2023-05-21T08:38:14.208Z,5.70
2023-05-21T08:39:21.707Z,4.65
2023-05-21T08:40:24.819Z,5.95
2023-05-21T08:41:28.620Z,3.17
2023-05-21T08:42:46.449Z,3.35
2023-05-21T08:44:00.427Z,3.33
2023-05-21T08:45:06.057Z,4.85
2023-05-21T08:46:10.288Z,3.47
2023-05-21T08:47:17.085Z,4.10
2023-05-21T08:48:20.662Z,4.10
2023-05-21T08:49:27.072Z,3.38
2023-05-21T08:50:32.013Z,2.97
2023-05-21T08:51:40.508Z,2.60
2023-05-21T08:52:44.391Z,5.65
2023-05-21T08:53:48.047Z,4.95
2023-05-21T08:54:55.155Z,8.68
2023-05-21T08:55:58.227Z,2.70
2023-05-21T08:57:13.695Z,3.03
2023-05-21T08:58:16.907Z,3.47
2023-05-21T08:59:20.117Z,2.90
2023-05-21T09:00:25.210Z,5.03
2023-05-21T09:01:29.748Z,5.20
2023-05-21T09:02:54.955Z,3.20
2023-05-21T09:04:12.168Z,4.13
2023-05-21T09:07:56.624Z,4.70
2023-05-21T09:09:21.327Z,4.45
2023-05-21T09:10:33.074Z,5.30
2023-05-21T09:11:36.668Z,4.47
2023-05-21T09:12:40.844Z,4.10
2023-05-21T09:13:44.180Z,3.22
2023-05-21T09:14:54.498Z,4.28
2023-05-21T09:16:02.763Z,4.25
2023-05-21T09:17:07.033Z,6.75
2023-05-21T09:18:10.955Z,3.30
2023-05-21T09:19:41.625Z,4.00
2023-05-21T09:20:46.315Z,3.08
2023-05-21T09:21:51.663Z,4.75
2023-05-21T09:22:57.419Z,3.30
2023-05-21T09:24:01.780Z,4.15
2023-05-21T09:25:08.971Z,3.65
2023-05-21T09:26:13.320Z,2.95
2023-05-21T09:27:18.219Z,3.83
2023-05-21T09:28:21.713Z,4.55
2023-05-21T09:29:27.056Z,4.55
2023-05-21T09:30:32.575Z,5.70
2023-05-21T09:31:44.743Z,5.68
2023-05-21T09:33:57.360Z,3.20
2023-05-21T09:35:17.194Z,3.65
2023-05-21T09:36:23.857Z,3.38
2023-05-21T09:37:29.026Z,3.85
2023-05-21T09:38:34.743Z,3.47
2023-05-21T09:39:39.445Z,3.67
2023-05-21T09:40:49.178Z,3.75
2023-05-21T09:41:54.275Z,3.35
2023-05-21T09:42:58.030Z,3.67
2023-05-21T09:44:05.678Z,4.25
2023-05-21T09:45:12.076Z,3.20
2023-05-21T09:46:16.487Z,4.32
2023-05-21T09:47:21.714Z,3.67
2023-05-21T09:48:41.461Z,4.72
2023-05-21T09:49:50.516Z,5.38
2023-05-21T09:50:54.218Z,5.40
2023-05-21T09:51:58.323Z,5.65
2023-05-21T09:53:01.754Z,3.80
2023-05-21T09:54:05.365Z,3.85
2023-05-21T09:55:12.917Z,4.70
2023-05-21T09:56:16.203Z,3.78
2023-05-21T09:57:27.438Z,5.85
2023-05-21T09:58:30.524Z,6.47
2023-05-21T09:59:37.614Z,3.92
2023-05-21T10:00:41.173Z,3.53
2023-05-21T10:01:44.645Z,4.90
2023-05-21T10:02:48.464Z,4.53
2023-05-21T10:04:00.325Z,3.50
2023-05-21T10:05:03.930Z,3.40
2023-05-21T10:06:10.159Z,3.45
2023-05-21T10:07:13.776Z,3.22
2023-05-21T10:08:17.712Z,4.53
2023-05-21T10:09:21.162Z,3.45
2023-05-21T10:10:24.948Z,4.45
2023-05-21T10:11:31.790Z,6.57
2023-05-21T10:12:34.965Z,5.15
2023-05-21T10:13:40.351Z,4.45
2023-05-21T10:14:43.701Z,3.30
2023-05-21T10:15:50.776Z,7.65
2023-05-21T10:16:55.602Z,5.57
2023-05-21T10:17:59.060Z,5.28
2023-05-21T10:19:02.316Z,3.38
2023-05-21T10:20:06.642Z,3.95
2023-05-21T10:21:09.759Z,4.07
2023-05-21T10:22:13.576Z,4.70
2023-05-21T10:23:17.421Z,4.55
2023-05-21T10:24:21.157Z,3.35
2023-05-21T10:25:24.788Z,4.50
2023-05-21T10:26:28.211Z,5.25
2023-05-21T10:27:32.746Z,3.60
2023-05-21T10:28:36.270Z,3.25
2023-05-21T10:29:39.753Z,5.10
2023-05-21T10:30:43.288Z,3.35
2023-05-21T10:31:50.188Z,3.63
2023-05-21T10:32:53.675Z,4.47
2023-05-21T10:33:57.578Z,3.88
2023-05-21T10:35:02.071Z,3.83
2023-05-21T10:36:05.968Z,4.95
2023-05-21T10:37:10.505Z,3.97
2023-05-21T10:38:14.155Z,3.30
2023-05-21T10:39:18.226Z,3.53
2023-05-21T10:40:21.662Z,3.30
2023-05-21T10:41:25.360Z,3.78
2023-05-21T10:42:34.386Z,4.72
2023-05-21T10:44:05.338Z,4.07
2023-05-21T10:45:46.785Z,4.95
2023-05-21T10:47:04.982Z,3.88
2023-05-21T10:48:20.084Z,5.15
2023-05-21T10:49:39.732Z,4.95
2023-05-21T10:50:49.575Z,3.50
2023-05-21T10:52:20.121Z,3.50
2023-05-21T10:53:33.623Z,7.00
2023-05-21T10:54:57.679Z,5.68
2023-05-21T10:56:14.831Z,4.22
2023-05-21T10:57:32.985Z,3.88
2023-05-21T10:59:22.600Z,6.47
2023-05-21T11:00:25.733Z,4.38
2023-05-21T11:01:34.840Z,3.60
2023-05-21T11:02:37.947Z,3.65
2023-05-21T11:03:41.936Z,3.95
2023-05-21T11:04:46.209Z,4.95
2023-05-21T11:05:53.222Z,4.05
2023-05-21T11:06:57.060Z,4.43
2023-05-21T11:08:02.657Z,4.63
2023-05-21T11:09:24.245Z,3.40
2023-05-21T11:10:45.434Z,5.15
2023-05-21T11:11:59.035Z,5.18
2023-05-21T11:13:15.494Z,4.72
2023-05-21T11:14:42.685Z,3.97
2023-05-21T11:16:02.337Z,3.53
2023-05-21T11:17:17.116Z,3.63
2023-05-21T11:18:20.999Z,3.17
2023-05-21T11:19:32.499Z,4.05
2023-05-21T11:20:38.111Z,3.85
2023-05-21T11:21:41.622Z,4.25
2023-05-21T11:22:44.458Z,3.25
2023-05-21T11:24:04.981Z,6.93
2023-05-21T11:25:09.265Z,4.30
2023-05-21T11:26:12.349Z,4.43
2023-05-21T11:27:31.674Z,4.45
2023-05-21T11:28:35.451Z,3.80
2023-05-21T11:29:45.673Z,3.20
2023-05-21T11:31:27.460Z,4.68
2023-05-21T11:32:30.470Z,3.70
2023-05-21T11:33:33.807Z,4.22
2023-05-21T11:34:43.989Z,3.28
2023-05-21T11:35:47.254Z,3.38
2023-05-21T11:36:50.752Z,3.45
2023-05-21T11:37:54.790Z,6.05
2023-05-21T11:39:23.123Z,3.92
2023-05-21T11:40:27.810Z,7.72
2023-05-21T11:41:31.613Z,5.03
2023-05-21T11:42:35.629Z,3.83
2023-05-21T11:43:41.813Z,6.53
2023-05-21T11:44:46.535Z,5.47
2023-05-21T11:45:49.797Z,5.25
2023-05-21T11:46:53.292Z,5.45
2023-05-21T11:47:56.785Z,4.20
2023-05-21T11:49:00.184Z,3.38
2023-05-21T11:50:04.990Z,3.83
2023-05-21T11:51:08.695Z,4.72
2023-05-21T11:52:12.676Z,5.38
2023-05-21T11:53:16.354Z,4.15
2023-05-21T11:54:19.921Z,3.47
2023-05-21T11:55:24.445Z,3.95
2023-05-21T11:56:27.734Z,5.15
2023-05-21T11:57:31.511Z,3.90
2023-05-21T11:58:35.329Z,3.47
2023-05-21T11:59:39.723Z,10.02
2023-05-21T12:00:43.110Z,4.35
2023-05-21T12:01:46.840Z,3.40
2023-05-21T12:02:54.419Z,5.50
2023-05-21T12:03:58.121Z,3.20
2023-05-21T12:05:01.249Z,5.13
2023-05-21T12:06:07.591Z,3.05
2023-05-21T12:07:11.860Z,3.40
2023-05-21T12:08:22.164Z,5.45
2023-05-21T12:10:29.002Z,5.63
2023-05-21T12:11:31.957Z,3.13
2023-05-21T12:12:45.703Z,3.00
2023-05-21T12:13:57.978Z,6.60
2023-05-21T12:15:02.120Z,4.88
2023-05-21T12:16:06.974Z,3.65
2023-05-21T12:17:10.977Z,2.70
2023-05-21T12:18:17.573Z,3.60
2023-05-21T12:19:21.673Z,5.43
2023-05-21T12:20:28.278Z,4.18
2023-05-21T12:21:32.551Z,3.08
2023-05-21T12:22:36.073Z,3.08
2023-05-21T12:23:39.061Z,3.60
2023-05-21T12:24:44.200Z,2.88
2023-05-21T12:25:47.898Z,4.38
2023-05-21T12:26:53.012Z,4.03
2023-05-21T12:27:59.181Z,6.50
2023-05-21T12:29:03.193Z,5.95
2023-05-21T12:30:07.639Z,3.20
2023-05-21T12:31:17.149Z,5.13
2023-05-21T12:32:21.787Z,4.47
2023-05-21T12:33:26.417Z,6.55
2023-05-21T12:34:46.668Z,3.85
2023-05-21T12:35:50.817Z,4.70
2023-05-21T12:36:54.060Z,2.45
2023-05-21T12:37:57.420Z,2.75
2023-05-21T12:39:00.639Z,4.03
2023-05-21T12:40:11.561Z,5.63
2023-05-21T12:41:14.832Z,4.47
2023-05-21T12:42:18.461Z,6.70
2023-05-21T12:43:22.001Z,6.45
2023-05-21T12:44:29.846Z,5.45
2023-05-21T12:45:33.631Z,5.68
2023-05-21T12:46:37.991Z,3.38
2023-05-21T12:47:41.790Z,6.55
2023-05-21T12:48:53.980Z,5.75
2023-05-21T12:50:01.042Z,10.15
2023-05-21T12:51:04.768Z,3.75
2023-05-21T12:52:12.043Z,7.90
2023-05-21T12:53:15.274Z,3.92
2023-05-21T12:54:18.265Z,4.90
2023-05-21T12:55:21.579Z,6.05
2023-05-21T12:56:26.017Z,6.70
2023-05-21T12:57:36.104Z,6.72
2023-05-21T12:58:39.209Z,3.53
2023-05-21T12:59:47.681Z,5.65
2023-05-21T13:00:51.429Z,3.30
2023-05-21T13:01:55.448Z,7.40
2023-05-21T13:03:01.137Z,10.30
2023-05-21T13:04:06.249Z,6.85
2023-05-21T13:05:20.018Z,5.07
2023-05-21T13:06:23.398Z,5.38
2023-05-21T13:07:27.433Z,5.75
2023-05-21T13:08:31.024Z,4.45
2023-05-21T13:09:34.513Z,6.07
2023-05-21T13:10:38.109Z,7.05
2023-05-21T13:11:41.599Z,5.30
2023-05-21T13:12:45.522Z,2.97
2023-05-21T13:13:48.641Z,8.85
2023-05-21T13:14:52.532Z,4.78
2023-05-21T13:15:56.307Z,9.30
2023-05-21T13:17:00.146Z,7.05
2023-05-21T13:18:03.211Z,4.82
2023-05-21T13:19:07.019Z,4.75
2023-05-21T13:20:21.962Z,6.78
2023-05-21T13:21:25.550Z,5.57
2023-05-21T13:22:28.729Z,3.17
2023-05-21T13:23:32.454Z,2.40
2023-05-21T13:24:35.711Z,5.03
2023-05-21T13:25:39.049Z,6.40
2023-05-21T13:26:42.610Z,5.50
2023-05-21T13:27:45.691Z,4.53
2023-05-21T13:28:49.627Z,8.13
2023-05-21T13:29:52.988Z,3.88
2023-05-21T13:30:56.969Z,5.88
2023-05-21T13:32:00.492Z,5.47
2023-05-21T13:33:04.431Z,4.72
2023-05-21T13:34:08.731Z,3.75
2023-05-21T13:35:12.644Z,5.78
2023-05-21T13:36:15.663Z,2.90
2023-05-21T13:37:19.974Z,3.50
2023-05-21T13:38:23.670Z,5.10
2023-05-21T13:39:28.640Z,5.50
2023-05-21T13:40:32.558Z,6.35
2023-05-21T13:41:36.491Z,6.32
2023-05-21T13:42:40.189Z,4.55
2023-05-21T13:43:43.865Z,6.72
2023-05-21T13:44:48.121Z,5.05
2023-05-21T13:45:52.734Z,6.78
2023-05-21T13:46:56.762Z,5.55
2023-05-21T13:48:00.220Z,3.95
2023-05-21T13:49:04.349Z,3.58
2023-05-21T13:50:08.613Z,3.80
2023-05-21T13:51:17.593Z,4.13
2023-05-21T13:52:25.746Z,6.97
2023-05-21T13:53:30.401Z,5.07
2023-05-21T13:54:34.276Z,5.78
2023-05-21T13:55:37.483Z,7.43
2023-05-21T13:56:40.612Z,4.60
2023-05-21T13:57:43.894Z,5.57
2023-05-21T13:58:47.919Z,7.68
2023-05-21T13:59:51.347Z,5.88
2023-05-21T14:00:57.676Z,5.00
2023-05-21T14:02:00.845Z,7.22
2023-05-21T14:03:07.206Z,4.00
2023-05-21T14:04:11.106Z,9.73
2023-05-21T14:05:14.646Z,6.13
2023-05-21T14:06:18.054Z,8.00
2023-05-21T14:07:22.538Z,3.58
2023-05-21T14:08:28.418Z,6.15
2023-05-21T14:09:32.145Z,5.10
2023-05-21T14:10:35.816Z,6.30
2023-05-21T14:11:39.694Z,9.98
2023-05-21T14:12:43.616Z,4.32
2023-05-21T14:13:47.092Z,5.57
2023-05-21T14:14:52.858Z,5.97
2023-05-21T14:15:56.333Z,4.78
2023-05-21T14:16:59.580Z,6.72
2023-05-21T14:18:03.153Z,3.28
2023-05-21T14:19:07.087Z,4.20
2023-05-21T14:20:11.376Z,4.10
2023-05-21T14:21:14.364Z,8.00
2023-05-21T14:22:18.006Z,6.70
2023-05-21T14:23:21.309Z,7.05
2023-05-21T14:24:24.450Z,5.60
2023-05-21T14:25:27.729Z,4.65
2023-05-21T14:26:31.228Z,3.42
2023-05-21T14:27:34.267Z,3.00
2023-05-21T14:28:37.581Z,6.22
2023-05-21T14:29:40.958Z,6.07
2023-05-21T14:30:44.223Z,3.03
2023-05-21T14:31:47.785Z,8.23
2023-05-21T14:32:51.389Z,4.25
2023-05-21T14:33:54.647Z,5.78
2023-05-21T14:34:57.754Z,6.43